createdAt,value
2019-01-06T00:02:48.991Z,3.10
2019-01-06T00:05:40.175Z,5.73
2019-01-06T00:08:22.392Z,3.10
2019-01-06T00:11:09.402Z,3.00
2019-01-06T00:14:03.845Z,5.10
2019-01-06T00:16:52.170Z,3.03
2019-01-06T00:19:53.229Z,5.97
2019-01-06T00:22:46.557Z,3.57
2019-01-06T00:25:50.247Z,3.50
2019-01-06T00:28:37.258Z,5.93
2019-01-06T00:31:37.853Z,4.10
2019-01-06T00:34:44.395Z,4.87
2019-01-06T00:37:36.363Z,4.57
2019-01-06T00:40:23.696Z,4.60
2019-01-06T00:43:11.123Z,4.40
2019-01-06T00:46:02.496Z,4.13
2019-01-06T00:48:51.145Z,5.57
2019-01-06T00:51:38.295Z,4.30
2019-01-06T00:54:35.656Z,5.57
2019-01-06T00:57:26.829Z,4.83
2019-01-06T01:00:15.163Z,5.00
2019-01-06T01:03:18.303Z,5.40
2019-01-06T01:06:16.182Z,6.00
2019-01-06T01:09:05.639Z,6.80
2019-01-06T01:12:03.382Z,5.53
2019-01-06T01:14:50.723Z,4.83
2019-01-06T01:17:39.067Z,6.60
2019-01-06T01:20:26.550Z,7.80
2019-01-06T01:23:33.454Z,6.10
2019-01-06T01:26:30.376Z,6.60
2019-01-06T01:29:17.471Z,5.30
2019-01-06T01:32:05.830Z,7.57
2019-01-06T01:34:47.838Z,5.53
2019-01-06T01:37:37.638Z,7.13
2019-01-06T01:40:29.656Z,7.50
2019-01-06T01:43:10.374Z,6.80
2019-01-06T01:45:55.819Z,8.03
2019-01-06T01:48:50.229Z,8.90
2019-01-06T01:51:50.198Z,6.83
2019-01-06T01:54:41.318Z,7.90
2019-01-06T01:57:35.852Z,8.70
2019-01-06T02:00:24.977Z,8.50
2019-01-06T02:03:12.151Z,6.77
2019-01-06T02:05:59.006Z,8.90
2019-01-06T02:08:46.136Z,7.27
2019-01-06T02:11:22.037Z,7.30
2019-01-06T02:14:19.725Z,8.57
2019-01-06T02:17:08.015Z,8.00
2019-01-06T02:20:01.761Z,9.57
2019-01-06T02:22:53.229Z,9.00
2019-01-06T02:25:34.020Z,9.07
2019-01-06T02:28:31.463Z,8.13
2019-01-06T02:31:22.853Z,8.47
2019-01-06T02:34:20.439Z,9.43
2019-01-06T02:37:07.558Z,12.10
2019-01-06T02:39:54.759Z,9.07
2019-01-06T02:42:48.830Z,9.47
2019-01-06T02:45:40.177Z,9.53
2019-01-06T02:48:28.468Z,13.67
2019-01-06T02:51:15.482Z,13.10
2019-01-06T02:54:02.932Z,11.83
2019-01-06T02:57:02.017Z,8.43
2019-01-06T02:59:46.581Z,11.80
2019-01-06T03:02:29.541Z,9.13
2019-01-06T03:05:17.881Z,14.07
2019-01-06T03:08:06.218Z,9.40
2019-01-06T03:10:58.564Z,10.70
2019-01-06T03:13:53.130Z,12.40
2019-01-06T03:16:40.285Z,9.23
2019-01-06T03:19:33.279Z,12.93
2019-01-06T03:22:21.834Z,10.90
2019-01-06T03:25:08.974Z,9.97
2019-01-06T03:27:57.298Z,14.13
2019-01-06T03:30:48.869Z,10.70
2019-01-06T03:33:52.354Z,14.07
2019-01-06T03:36:49.590Z,12.03
2019-01-06T03:39:41.186Z,12.50
2019-01-06T03:42:28.603Z,14.50
2019-01-06T03:45:29.471Z,14.20
2019-01-06T03:48:26.691Z,12.70
2019-01-06T03:51:20.800Z,12.97
2019-01-06T03:54:13.008Z,13.53
2019-01-06T03:57:17.238Z,13.33
2019-01-06T04:00:14.826Z,12.13
2019-01-06T04:03:07.662Z,11.83
2019-01-06T04:06:06.781Z,15.37
2019-01-06T04:08:54.022Z,13.40
2019-01-06T04:11:37.333Z,13.10
2019-01-06T04:14:24.319Z,14.87
2019-01-06T04:17:11.532Z,13.80
2019-01-06T04:20:09.103Z,14.07
2019-01-06T04:22:56.005Z,18.53
2019-01-06T04:25:43.330Z,13.67
2019-01-06T04:28:40.947Z,13.40
2019-01-06T04:31:35.192Z,14.03
2019-01-06T04:34:35.614Z,15.70
2019-01-06T04:37:25.186Z,16.67
2019-01-06T04:40:12.297Z,16.30
2019-01-06T04:42:52.745Z,14.97
2019-01-06T04:45:39.972Z,13.93
2019-01-06T04:48:19.882Z,13.70
2019-01-06T04:51:20.290Z,11.57
2019-01-06T04:54:07.618Z,18.60
2019-01-06T04:56:54.252Z,15.10
2019-01-06T04:59:41.573Z,12.60
2019-01-06T05:02:45.306Z,12.37
2019-01-06T05:05:42.905Z,13.97
2019-01-06T05:08:30.199Z,16.07
2019-01-06T05:11:19.070Z,13.67
2019-01-06T05:14:03.609Z,15.63
2019-01-06T05:16:57.728Z,13.37
2019-01-06T05:19:44.921Z,15.67
2019-01-06T05:22:39.455Z,14.10
2019-01-06T05:25:21.641Z,13.53
2019-01-06T05:28:19.312Z,15.90
2019-01-06T05:31:00.569Z,17.20
2019-01-06T05:33:47.775Z,13.90
2019-01-06T05:36:32.034Z,14.67
2019-01-06T05:39:32.442Z,16.27
2019-01-06T05:42:30.899Z,14.27
2019-01-06T05:45:19.605Z,14.73
2019-01-06T05:48:26.420Z,15.03
2019-01-06T05:51:13.417Z,14.43
2019-01-06T05:54:03.342Z,17.93
2019-01-06T05:57:00.225Z,18.73
2019-01-06T05:59:48.550Z,14.77
2019-01-06T06:02:35.751Z,16.50
2019-01-06T06:05:22.953Z,15.57
2019-01-06T06:08:16.450Z,15.57
2019-01-06T06:11:07.783Z,14.93
2019-01-06T06:13:54.995Z,16.23
2019-01-06T06:16:42.215Z,18.70
2019-01-06T06:19:42.709Z,17.33
2019-01-06T06:22:27.374Z,17.90
2019-01-06T06:25:14.816Z,16.57
2019-01-06T06:28:06.167Z,15.47
2019-01-06T06:31:06.815Z,18.23
2019-01-06T06:33:51.846Z,18.10
2019-01-06T06:36:39.865Z,20.00
2019-01-06T06:39:34.233Z,19.30
2019-01-06T06:42:34.415Z,21.63
2019-01-06T06:45:32.624Z,18.67
2019-01-06T06:48:26.867Z,18.47
2019-01-06T06:51:15.671Z,20.70
2019-01-06T06:54:22.396Z,22.93
2019-01-06T06:57:46.919Z,22.93
2019-01-06T07:00:58.644Z,24.27
2019-01-06T07:03:49.403Z,20.07
2019-01-06T07:06:36.711Z,22.43
2019-01-06T07:09:19.678Z,18.77
2019-01-06T07:12:17.308Z,20.73
2019-01-06T07:15:19.287Z,24.77
2019-01-06T07:18:07.455Z,20.97
2019-01-06T07:21:06.499Z,21.60
2019-01-06T07:23:53.470Z,20.13
2019-01-06T07:26:40.641Z,22.00
2019-01-06T07:29:31.738Z,20.60
2019-01-06T07:32:32.027Z,30.47
2019-01-06T07:35:29.159Z,36.93
2019-01-06T07:38:20.389Z,23.90
2019-01-06T07:41:16.039Z,19.23
2019-01-06T07:44:13.513Z,19.03
2019-01-06T07:47:00.840Z,19.00
2019-01-06T07:49:49.196Z,18.77
2019-01-06T07:52:37.290Z,18.77
2019-01-06T07:55:26.155Z,18.93
2019-01-06T07:58:14.493Z,18.47
2019-01-06T08:01:21.610Z,14.10
2019-01-06T08:04:08.573Z,20.43
2019-01-06T08:06:56.972Z,21.40
2019-01-06T08:09:45.357Z,16.03
2019-01-06T08:12:39.761Z,17.77
2019-01-06T08:15:26.767Z,18.47
2019-01-06T08:18:25.264Z,22.70
2019-01-06T08:21:13.535Z,18.73
2019-01-06T08:24:00.516Z,16.90
2019-01-06T08:26:55.177Z,16.20
2019-01-06T08:29:38.419Z,18.93
2019-01-06T08:32:29.786Z,16.40
2019-01-06T08:35:30.522Z,16.60
2019-01-06T08:38:17.907Z,15.43
2019-01-06T08:40:57.309Z,16.23
2019-01-06T08:43:45.656Z,19.93
2019-01-06T08:46:40.009Z,20.37
2019-01-06T08:49:27.064Z,17.73
2019-01-06T08:52:18.217Z,18.47
2019-01-06T08:55:05.517Z,18.60
2019-01-06T08:57:56.205Z,25.77
2019-01-06T09:00:43.461Z,46.83
2019-01-06T09:03:28.432Z,40.53
2019-01-06T09:06:26.362Z,36.87
2019-01-06T09:09:13.300Z,33.83
2019-01-06T09:12:07.751Z,33.23
2019-01-06T09:14:58.890Z,47.73
2019-01-06T09:17:49.908Z,38.30
2019-01-06T09:20:41.070Z,34.70
2019-01-06T09:23:28.395Z,31.47
2019-01-06T09:26:32.038Z,24.93
2019-01-06T09:29:19.490Z,21.90
2019-01-06T09:32:06.803Z,17.33
2019-01-06T09:34:54.030Z,19.33
2019-01-06T09:37:41.334Z,23.60
2019-01-06T09:40:29.759Z,17.37
2019-01-06T09:43:20.921Z,18.67
2019-01-06T09:46:01.121Z,20.40
2019-01-06T09:48:55.408Z,15.80
2019-01-06T09:51:54.561Z,28.83
2019-01-06T09:54:42.940Z,26.07
2019-01-06T09:57:30.214Z,23.00
2019-01-06T10:00:18.665Z,32.23
2019-01-06T10:02:56.348Z,28.53
2019-01-06T10:06:00.174Z,18.70
2019-01-06T10:08:47.667Z,29.13
2019-01-06T10:11:34.899Z,22.37
2019-01-06T10:14:22.307Z,22.37
2019-01-06T10:17:09.343Z,20.07
2019-01-06T10:19:56.638Z,17.70
2019-01-06T10:22:44.068Z,18.10
2019-01-06T10:25:35.122Z,16.67
2019-01-06T10:28:32.820Z,14.40
2019-01-06T10:31:24.298Z,13.60
2019-01-06T10:34:11.572Z,16.83
2019-01-06T10:36:58.710Z,12.67
2019-01-06T10:39:51.393Z,14.97
2019-01-06T10:42:48.538Z,11.87
2019-01-06T10:45:35.656Z,13.73
2019-01-06T10:48:23.016Z,11.03
2019-01-06T10:51:26.690Z,13.23
2019-01-06T10:54:15.001Z,13.33
2019-01-06T10:57:03.327Z,14.07
2019-01-06T10:59:50.543Z,10.50
2019-01-06T11:02:56.632Z,11.60
2019-01-06T11:05:44.916Z,11.00
2019-01-06T11:08:32.062Z,12.90
2019-01-06T11:11:19.213Z,12.13
2019-01-06T11:14:13.405Z,11.07
2019-01-06T11:17:01.679Z,11.77
2019-01-06T11:19:50.000Z,10.47
2019-01-06T11:22:40.275Z,10.60
2019-01-06T11:25:44.037Z,13.10
2019-01-06T11:28:30.843Z,10.37
2019-01-06T11:31:25.299Z,9.10
2019-01-06T11:34:31.807Z,10.17
2019-01-06T11:37:38.116Z,11.27
2019-01-06T11:40:24.976Z,12.93
2019-01-06T11:43:26.003Z,12.00
2019-01-06T11:46:13.364Z,10.50
2019-01-06T11:49:00.371Z,11.40
2019-01-06T11:51:47.603Z,9.93
2019-01-06T11:54:45.213Z,13.90
2019-01-06T11:57:39.353Z,10.50
2019-01-06T12:00:27.782Z,13.37
2019-01-06T12:03:16.091Z,14.03
2019-01-06T12:06:22.674Z,13.33
2019-01-06T12:09:20.047Z,11.87
2019-01-06T12:12:14.856Z,19.00
2019-01-06T12:15:05.961Z,22.40
2019-01-06T12:17:44.819Z,22.40
2019-01-06T12:20:25.494Z,22.40
2019-01-06T12:23:12.760Z,16.10
2019-01-06T12:25:54.089Z,17.60
2019-01-06T12:28:37.899Z,18.77
2019-01-06T12:31:29.039Z,17.43
2019-01-06T12:34:16.468Z,16.10
2019-01-06T12:37:10.885Z,16.73
2019-01-06T12:39:59.828Z,16.40
2019-01-06T12:42:46.979Z,19.03
2019-01-06T12:45:33.550Z,22.63
2019-01-06T12:48:16.514Z,16.73
2019-01-06T12:51:13.782Z,20.93
2019-01-06T12:53:59.556Z,20.43
2019-01-06T12:56:50.617Z,19.20
2019-01-06T12:59:45.006Z,30.07
2019-01-06T13:02:25.460Z,19.33
2019-01-06T13:05:12.891Z,18.17
2019-01-06T13:08:19.660Z,27.93
2019-01-06T13:11:06.906Z,19.50
2019-01-06T13:13:46.906Z,18.87
2019-01-06T13:16:53.393Z,25.93
2019-01-06T13:19:40.550Z,50.70
2019-01-06T13:22:28.867Z,55.87
2019-01-06T13:25:33.196Z,34.67
2019-01-06T13:28:21.601Z,30.77
2019-01-06T13:31:09.923Z,24.83
2019-01-06T13:33:57.065Z,33.00
2019-01-06T13:36:54.645Z,56.77
2019-01-06T13:39:58.073Z,108.27
2019-01-06T13:42:49.219Z,62.03
2019-01-06T13:45:55.978Z,38.90
2019-01-06T13:48:43.245Z,50.03
2019-01-06T13:51:46.675Z,42.03
2019-01-06T13:54:35.083Z,24.47
2019-01-06T13:57:35.449Z,26.50
2019-01-06T14:00:42.654Z,24.60
2019-01-06T14:03:31.070Z,33.40
2019-01-06T14:06:17.959Z,38.17
2019-01-06T14:09:09.343Z,31.23
2019-01-06T14:12:07.172Z,31.67
2019-01-06T14:15:10.705Z,34.23
2019-01-06T14:18:01.853Z,36.03
2019-01-06T14:20:56.245Z,32.43
2019-01-06T14:23:47.408Z,32.93
2019-01-06T14:26:34.309Z,38.13
2019-01-06T14:29:31.527Z,33.17
2019-01-06T14:32:35.265Z,34.27
2019-01-06T14:35:26.173Z,41.73
2019-01-06T14:38:14.559Z,29.00
2019-01-06T14:41:02.846Z,38.17
2019-01-06T14:43:51.222Z,52.70
2019-01-06T14:46:45.543Z,47.17
2019-01-06T14:49:33.902Z,38.93
2019-01-06T14:52:21.206Z,38.83
2019-01-06T14:55:24.791Z,37.97
2019-01-06T14:58:11.267Z,39.17
2019-01-06T15:01:02.727Z,39.93
2019-01-06T15:03:53.830Z,40.53
2019-01-06T15:06:37.734Z,41.77
2019-01-06T15:09:20.918Z,37.53
2019-01-06T15:12:08.150Z,44.27
2019-01-06T15:14:55.458Z,39.77
2019-01-06T15:17:42.783Z,39.20
2019-01-06T15:20:33.911Z,41.63
2019-01-06T15:23:27.493Z,32.63
2019-01-06T15:26:14.550Z,39.27
2019-01-06T15:29:05.973Z,30.30
2019-01-06T15:31:54.251Z,45.40
2019-01-06T15:34:41.562Z,38.33
2019-01-06T15:37:27.523Z,42.77
2019-01-06T15:40:33.950Z,44.10
2019-01-06T15:43:20.770Z,37.83
2019-01-06T15:46:18.275Z,48.20
2019-01-06T15:49:02.243Z,40.40
2019-01-06T15:51:59.604Z,46.63
2019-01-06T15:54:42.709Z,59.83
2019-01-06T15:57:29.946Z,42.57
2019-01-06T16:00:24.148Z,45.30
2019-01-06T16:03:11.774Z,51.23
2019-01-06T16:06:04.390Z,53.50
2019-01-06T16:08:54.726Z,47.90
2019-01-06T16:11:53.618Z,56.93
2019-01-06T16:14:44.674Z,43.80
2019-01-06T16:17:32.086Z,47.80
2019-01-06T16:20:19.320Z,52.70
2019-01-06T16:23:06.659Z,56.17
2019-01-06T16:26:10.041Z,61.70
2019-01-06T16:29:07.000Z,46.50
2019-01-06T16:31:54.149Z,54.83
2019-01-06T16:34:50.115Z,43.70
2019-01-06T16:37:38.429Z,60.50
2019-01-06T16:40:25.897Z,60.60
2019-01-06T16:43:12.903Z,89.93
2019-01-06T16:46:00.415Z,61.40
2019-01-06T16:48:47.698Z,48.93
2019-01-06T16:51:34.673Z,46.67
2019-01-06T16:54:22.176Z,50.90
2019-01-06T16:57:09.217Z,49.13
2019-01-06T17:00:12.938Z,50.20
2019-01-06T17:02:55.289Z,46.93
2019-01-06T17:05:42.296Z,43.03
2019-01-06T17:08:36.686Z,70.53
2019-01-06T17:11:26.438Z,66.63
2019-01-06T17:14:20.778Z,54.67
2019-01-06T17:17:00.354Z,75.20
2019-01-06T17:19:50.374Z,64.67
2019-01-06T17:22:38.741Z,68.40
2019-01-06T17:25:25.832Z,77.63
2019-01-06T17:28:23.409Z,54.07
2019-01-06T17:31:29.945Z,53.23
2019-01-06T17:34:14.611Z,69.20
2019-01-06T17:37:02.928Z,111.80
2019-01-06T17:39:51.725Z,117.23
2019-01-06T17:42:40.062Z,127.27
2019-01-06T17:45:36.325Z,66.17
2019-01-06T17:48:23.989Z,66.07
2019-01-06T17:51:15.987Z,86.17
2019-01-06T17:54:13.207Z,77.30
2019-01-06T17:57:00.089Z,72.17
2019-01-06T17:59:45.238Z,65.23
2019-01-06T18:02:39.562Z,79.27
2019-01-06T18:05:27.997Z,55.87
2019-01-06T18:08:14.982Z,93.73
2019-01-06T18:10:57.134Z,81.70
2019-01-06T18:13:45.465Z,72.17
2019-01-06T18:16:39.652Z,108.17
2019-01-06T18:19:23.364Z,68.40
2019-01-06T18:22:10.641Z,72.43
2019-01-06T18:25:08.312Z,77.50
2019-01-06T18:27:56.638Z,91.13
2019-01-06T18:30:43.739Z,95.20
2019-01-06T18:33:32.098Z,62.77
2019-01-06T18:36:19.369Z,61.07
2019-01-06T18:39:10.622Z,54.03
2019-01-06T18:42:04.797Z,52.63
2019-01-06T18:45:08.834Z,169.87
2019-01-06T18:47:58.282Z,157.17
2019-01-06T18:50:45.403Z,96.60
2019-01-06T18:53:42.935Z,130.27
2019-01-06T18:56:33.646Z,242.57
2019-01-06T18:59:34.084Z,118.73
2019-01-06T19:02:25.759Z,67.67
2019-01-06T19:05:25.093Z,61.67
2019-01-06T19:08:12.375Z,73.43
2019-01-06T19:11:12.760Z,65.77
2019-01-06T19:14:06.982Z,62.00
2019-01-06T19:16:56.401Z,64.37
2019-01-06T19:19:42.835Z,78.93
2019-01-06T19:22:29.901Z,136.20
2019-01-06T19:25:17.165Z,67.10
2019-01-06T19:28:18.021Z,124.03
2019-01-06T19:31:05.342Z,54.63
2019-01-06T19:34:12.133Z,51.43
2019-01-06T19:36:57.019Z,51.00
2019-01-06T19:39:44.331Z,61.50
2019-01-06T19:42:32.664Z,70.20
2019-01-06T19:45:24.034Z,46.13
2019-01-06T19:48:06.766Z,73.00
2019-01-06T19:50:53.939Z,54.40
2019-01-06T19:53:41.269Z,59.10
2019-01-06T19:56:45.066Z,63.10
2019-01-06T19:59:39.406Z,51.73
2019-01-06T20:02:28.172Z,55.17
2019-01-06T20:05:22.493Z,59.60
2019-01-06T20:08:04.070Z,49.97
2019-01-06T20:10:51.006Z,51.57
2019-01-06T20:13:38.045Z,62.47
2019-01-06T20:16:24.330Z,58.13
2019-01-06T20:19:11.314Z,63.73
2019-01-06T20:22:02.451Z,53.47
2019-01-06T20:25:09.206Z,67.63
2019-01-06T20:27:56.385Z,68.17
2019-01-06T20:30:40.714Z,77.63
2019-01-06T20:33:35.211Z,71.27
2019-01-06T20:36:26.635Z,60.53
2019-01-06T20:39:28.622Z,69.27
2019-01-06T20:42:19.794Z,64.77
2019-01-06T20:45:07.114Z,65.83
2019-01-06T20:47:53.016Z,63.93
2019-01-06T20:50:44.149Z,70.93
2019-01-06T20:53:31.315Z,74.23
2019-01-06T20:56:26.562Z,93.83
2019-01-06T20:59:19.858Z,74.33
2019-01-06T21:02:10.208Z,61.70
2019-01-06T21:05:13.709Z,74.03
2019-01-06T21:08:02.759Z,67.23
2019-01-06T21:10:57.175Z,79.90
2019-01-06T21:13:44.558Z,75.73
2019-01-06T21:16:41.906Z,58.93
2019-01-06T21:19:30.374Z,53.70
2019-01-06T21:22:17.799Z,65.37
2019-01-06T21:25:12.024Z,77.73
2019-01-06T21:28:12.019Z,73.57
2019-01-06T21:31:14.185Z,70.03
2019-01-06T21:34:01.469Z,62.20
2019-01-06T21:36:45.058Z,73.93
2019-01-06T21:39:39.510Z,86.70
2019-01-06T21:42:33.925Z,69.53
2019-01-06T21:45:28.214Z,72.70
2019-01-06T21:48:22.842Z,62.80
2019-01-06T21:51:29.357Z,66.57
2019-01-06T21:54:23.972Z,59.00
2019-01-06T21:57:21.703Z,63.83
2019-01-06T22:00:16.074Z,59.63
2019-01-06T22:03:04.958Z,48.10
2019-01-06T22:06:00.246Z,56.60
2019-01-06T22:09:06.949Z,55.37
2019-01-06T22:11:53.688Z,40.27
2019-01-06T22:14:45.159Z,43.43
2019-01-06T22:17:33.610Z,36.77
2019-01-06T22:20:29.746Z,43.07
2019-01-06T22:23:21.178Z,43.57
2019-01-06T22:26:09.625Z,49.80
2019-01-06T22:28:59.469Z,41.13
2019-01-06T22:31:51.141Z,44.57
2019-01-06T22:34:39.821Z,45.50
2019-01-06T22:37:28.110Z,37.33
2019-01-06T22:40:25.327Z,42.87
2019-01-06T22:43:19.517Z,48.47
2019-01-06T22:46:03.201Z,31.93
2019-01-06T22:48:50.397Z,33.80
2019-01-06T22:51:48.373Z,47.97
2019-01-06T22:54:49.113Z,43.80
2019-01-06T22:57:43.788Z,41.77
2019-01-06T23:00:41.930Z,40.30
2019-01-06T23:03:45.495Z,41.07
2019-01-06T23:06:36.787Z,43.43
2019-01-06T23:09:26.499Z,40.43
2019-01-06T23:12:17.927Z,43.10
2019-01-06T23:15:12.166Z,47.77
2019-01-06T23:18:17.266Z,47.90
2019-01-06T23:21:08.704Z,53.40
2019-01-06T23:24:00.319Z,52.23
2019-01-06T23:27:03.773Z,44.20
2019-01-06T23:29:49.939Z,54.40
2019-01-06T23:32:37.378Z,54.97
2019-01-06T23:35:32.127Z,51.93
2019-01-06T23:38:20.435Z,48.30
2019-01-06T23:41:13.949Z,51.50
2019-01-06T23:44:00.934Z,53.80
2019-01-06T23:46:44.216Z,52.60
2019-01-06T23:49:32.509Z,49.30
2019-01-06T23:52:38.981Z,55.80
2019-01-06T23:55:26.111Z,53.10
2019-01-06T23:58:14.448Z,52.20
